createdAt,value
2019-05-03T00:00:07.230Z,0.00
2019-05-03T00:01:07.260Z,0.00
2019-05-03T00:02:07.278Z,0.00
2019-05-03T00:03:07.295Z,0.00
2019-05-03T00:04:07.321Z,0.00
2019-05-03T00:05:07.344Z,0.00
2019-05-03T00:06:07.389Z,0.00
2019-05-03T00:07:07.395Z,0.00
2019-05-03T00:08:07.413Z,0.00
2019-05-03T00:09:07.451Z,0.00
2019-05-03T00:10:07.459Z,0.00
2019-05-03T00:11:07.486Z,0.00
2019-05-03T00:12:07.519Z,0.00
2019-05-03T00:13:07.533Z,0.00
2019-05-03T00:14:07.555Z,0.00
2019-05-03T00:15:07.581Z,0.00
2019-05-03T00:16:07.604Z,0.00
2019-05-03T00:17:07.633Z,0.00
2019-05-03T00:18:07.647Z,0.00
2019-05-03T00:19:07.672Z,0.00
2019-05-03T00:20:07.699Z,0.00
2019-05-03T00:21:07.717Z,0.00
2019-05-03T00:22:07.743Z,0.00
2019-05-03T00:23:07.780Z,0.00
2019-05-03T00:24:07.793Z,0.00
2019-05-03T00:25:08.466Z,0.00
2019-05-03T00:26:07.840Z,0.00
2019-05-03T00:27:07.859Z,0.00
2019-05-03T00:28:07.885Z,0.00
2019-05-03T00:29:07.907Z,0.00
2019-05-03T00:30:07.931Z,0.00
2019-05-03T00:31:07.953Z,0.00
2019-05-03T00:32:07.974Z,0.00
2019-05-03T00:33:08.002Z,0.00
2019-05-03T00:34:08.029Z,0.00
2019-05-03T00:35:08.047Z,0.00
2019-05-03T00:36:08.077Z,0.00
2019-05-03T00:37:08.089Z,0.00
2019-05-03T00:38:08.115Z,0.00
2019-05-03T00:39:08.137Z,0.00
2019-05-03T00:40:08.157Z,0.00
2019-05-03T00:41:08.185Z,0.00
2019-05-03T00:42:08.222Z,0.00
2019-05-03T00:43:08.227Z,0.00
2019-05-03T00:44:08.269Z,0.00
2019-05-03T00:45:08.291Z,0.00
2019-05-03T00:46:08.308Z,0.00
2019-05-03T00:47:08.327Z,0.00
2019-05-03T00:48:08.352Z,0.00
2019-05-03T00:49:08.377Z,0.00
2019-05-03T00:50:08.401Z,0.00
2019-05-03T00:51:08.428Z,0.00
2019-05-03T00:52:08.444Z,0.00
2019-05-03T00:53:08.484Z,0.00
2019-05-03T00:54:08.498Z,0.00
2019-05-03T00:55:16.230Z,0.00
2019-05-03T00:56:08.534Z,0.00
2019-05-03T00:57:08.559Z,0.00
2019-05-03T00:58:08.585Z,0.00
2019-05-03T00:59:08.601Z,0.00
2019-05-03T01:00:08.631Z,0.00
2019-05-03T01:01:08.655Z,0.00
2019-05-03T01:02:08.677Z,0.00
2019-05-03T01:03:08.700Z,0.00
2019-05-03T01:04:08.726Z,0.00
2019-05-03T01:05:08.748Z,0.00
2019-05-03T01:06:08.775Z,0.00
2019-05-03T01:07:08.793Z,0.00
2019-05-03T01:08:08.819Z,0.00
2019-05-03T01:09:08.872Z,0.00
2019-05-03T01:10:08.869Z,0.00
2019-05-03T01:11:08.889Z,0.00
2019-05-03T01:12:08.921Z,0.00
2019-05-03T01:13:08.934Z,0.00
2019-05-03T01:14:08.964Z,0.00
2019-05-03T01:15:08.982Z,0.00
2019-05-03T01:16:09.006Z,0.00
2019-05-03T01:17:09.024Z,0.00
2019-05-03T01:18:09.048Z,0.00
2019-05-03T01:19:09.080Z,0.00
2019-05-03T01:20:09.137Z,0.00
2019-05-03T01:21:09.121Z,0.00
2019-05-03T01:22:09.148Z,0.00
2019-05-03T01:23:09.168Z,0.00
2019-05-03T01:24:09.224Z,0.00
2019-05-03T01:25:09.220Z,0.00
2019-05-03T01:26:09.233Z,0.00
2019-05-03T01:27:09.262Z,0.00
2019-05-03T01:28:09.287Z,0.00
2019-05-03T01:29:09.314Z,0.00
2019-05-03T01:30:09.340Z,0.00
2019-05-03T01:31:09.366Z,0.00
2019-05-03T01:32:09.376Z,0.00
2019-05-03T01:33:09.406Z,0.00
2019-05-03T01:34:09.431Z,0.00
2019-05-03T01:35:09.448Z,0.00
2019-05-03T01:36:09.470Z,0.00
2019-05-03T01:37:09.491Z,0.00
2019-05-03T01:38:11.636Z,0.00
2019-05-03T01:39:09.536Z,0.00
2019-05-03T01:40:09.566Z,0.00
2019-05-03T01:41:09.592Z,0.00
2019-05-03T01:42:09.618Z,0.00
2019-05-03T01:43:11.561Z,0.00
2019-05-03T01:44:09.656Z,0.00
2019-05-03T01:45:09.681Z,0.00
2019-05-03T01:46:09.711Z,0.00
2019-05-03T01:47:11.538Z,0.00
2019-05-03T01:48:09.749Z,0.00
2019-05-03T01:49:09.782Z,0.00
2019-05-03T01:50:09.809Z,0.00
2019-05-03T01:51:11.704Z,0.00
2019-05-03T01:52:09.854Z,0.00
2019-05-03T01:53:09.864Z,0.00
2019-05-03T01:54:09.890Z,0.00
2019-05-03T01:55:13.844Z,0.00
2019-05-03T01:56:11.725Z,0.00
2019-05-03T01:57:11.625Z,0.00
2019-05-03T01:58:10.011Z,0.00
2019-05-03T01:59:10.004Z,0.00
2019-05-03T02:00:11.728Z,0.00
2019-05-03T02:01:10.067Z,0.00
2019-05-03T02:02:10.077Z,0.00
2019-05-03T02:03:11.930Z,0.00
2019-05-03T02:04:12.106Z,0.00
2019-05-03T02:05:11.894Z,0.00
2019-05-03T02:06:11.901Z,0.00
2019-05-03T02:07:11.755Z,0.00
2019-05-03T02:08:10.213Z,0.00
2019-05-03T02:09:12.095Z,0.00
2019-05-03T02:10:11.926Z,0.00
2019-05-03T02:11:11.642Z,0.00
2019-05-03T02:12:10.308Z,0.00
2019-05-03T02:13:12.213Z,0.00
2019-05-03T02:14:12.215Z,0.00
2019-05-03T02:15:11.831Z,0.00
2019-05-03T02:16:11.567Z,0.00
2019-05-03T02:17:12.289Z,0.00
2019-05-03T02:18:14.770Z,0.00
2019-05-03T02:19:12.502Z,0.00
2019-05-03T02:20:12.434Z,0.00
2019-05-03T02:21:12.204Z,0.00
2019-05-03T02:22:12.028Z,0.00
2019-05-03T02:23:11.912Z,0.00
2019-05-03T02:24:11.839Z,0.00
2019-05-03T02:25:12.367Z,0.00
2019-05-03T02:26:11.781Z,0.00
2019-05-03T02:27:12.582Z,0.00
2019-05-03T02:28:12.506Z,0.00
2019-05-03T02:29:12.529Z,0.00
2019-05-03T02:30:13.714Z,0.00
2019-05-03T02:31:13.432Z,0.00
2019-05-03T02:32:12.965Z,0.00
2019-05-03T02:33:13.395Z,0.00
2019-05-03T02:34:12.577Z,0.00
2019-05-03T02:35:13.685Z,0.00
2019-05-03T02:36:13.295Z,0.00
2019-05-03T02:37:13.585Z,0.00
2019-05-03T02:38:13.007Z,0.00
2019-05-03T02:39:13.323Z,0.00
2019-05-03T02:40:13.015Z,0.00
2019-05-03T02:41:13.476Z,0.00
2019-05-03T02:42:11.893Z,0.00
2019-05-03T02:43:11.022Z,0.00
2019-05-03T02:44:11.046Z,0.00
2019-05-03T02:45:11.070Z,0.00
2019-05-03T02:46:11.132Z,0.00
2019-05-03T02:47:11.129Z,0.00
2019-05-03T02:48:11.147Z,0.00
2019-05-03T02:49:11.168Z,0.00
2019-05-03T02:50:11.191Z,0.00
2019-05-03T02:51:11.207Z,0.00
2019-05-03T02:52:11.236Z,0.00
2019-05-03T02:53:11.256Z,0.00
2019-05-03T02:54:11.278Z,0.00
2019-05-03T02:55:11.311Z,0.00
2019-05-03T02:56:21.017Z,0.00
2019-05-03T02:57:11.360Z,0.00
2019-05-03T02:58:11.406Z,0.00
2019-05-03T02:59:11.396Z,0.00
2019-05-03T03:00:11.439Z,0.00
2019-05-03T03:01:11.443Z,0.00
2019-05-03T03:02:11.467Z,0.00
2019-05-03T03:03:11.490Z,0.00
2019-05-03T03:04:11.510Z,0.00
2019-05-03T03:05:11.553Z,0.00
2019-05-03T03:06:11.558Z,0.00
2019-05-03T03:07:11.590Z,0.00
2019-05-03T03:08:11.602Z,0.00
2019-05-03T03:09:11.636Z,0.00
2019-05-03T03:10:11.651Z,0.00
2019-05-03T03:11:11.669Z,0.00
2019-05-03T03:12:11.700Z,0.00
2019-05-03T03:13:11.721Z,0.00
2019-05-03T03:14:11.753Z,4.00
2019-05-03T03:15:11.760Z,0.00
2019-05-03T03:16:11.790Z,0.00
2019-05-03T03:17:11.808Z,0.00
2019-05-03T03:18:11.834Z,4.00
2019-05-03T03:19:11.857Z,0.00
2019-05-03T03:20:11.884Z,0.00
2019-05-03T03:21:11.932Z,4.00
2019-05-03T03:22:11.934Z,4.00
2019-05-03T03:23:17.372Z,0.00
2019-05-03T03:24:11.976Z,4.00
2019-05-03T03:25:11.994Z,4.00
2019-05-03T03:26:12.016Z,4.00
2019-05-03T03:27:12.050Z,4.00
2019-05-03T03:28:12.067Z,4.00
2019-05-03T03:29:12.082Z,8.00
2019-05-03T03:30:12.118Z,4.00
2019-05-03T03:31:12.133Z,8.00
2019-05-03T03:32:12.194Z,8.00
2019-05-03T03:33:12.200Z,8.00
2019-05-03T03:34:12.205Z,8.00
2019-05-03T03:35:13.114Z,12.00
2019-05-03T03:36:43.042Z,12.00
2019-05-03T03:37:12.279Z,8.00
2019-05-03T03:38:12.292Z,12.00
2019-05-03T03:39:14.969Z,12.00
2019-05-03T03:40:12.349Z,12.00
2019-05-03T03:41:12.362Z,16.00
2019-05-03T03:42:12.385Z,16.00
2019-05-03T03:43:12.428Z,16.00
2019-05-03T03:44:15.156Z,16.00
2019-05-03T03:45:12.465Z,20.00
2019-05-03T03:46:12.487Z,20.00
2019-05-03T03:47:12.500Z,20.00
2019-05-03T03:48:12.532Z,20.00
2019-05-03T03:49:12.548Z,20.00
2019-05-03T03:50:15.031Z,24.00
2019-05-03T03:51:12.592Z,24.00
2019-05-03T03:52:12.618Z,24.00
2019-05-03T03:53:14.897Z,28.00
2019-05-03T03:54:15.366Z,24.00
2019-05-03T03:55:15.626Z,28.00
2019-05-03T03:56:12.720Z,28.00
2019-05-03T03:57:12.750Z,32.00
2019-05-03T03:58:17.701Z,28.00
2019-05-03T03:59:15.252Z,32.00
2019-05-03T04:00:12.796Z,32.00
2019-05-03T04:01:15.530Z,36.00
2019-05-03T04:02:15.725Z,36.00
2019-05-03T04:03:15.539Z,36.00
2019-05-03T04:04:12.894Z,36.00
2019-05-03T04:05:15.725Z,36.00
2019-05-03T04:06:15.261Z,40.00
2019-05-03T04:07:15.503Z,40.00
2019-05-03T04:08:12.981Z,44.00
2019-05-03T04:09:15.874Z,44.00
2019-05-03T04:10:15.592Z,48.00
2019-05-03T04:11:15.428Z,52.00
2019-05-03T04:12:13.083Z,56.00
2019-05-03T04:13:15.739Z,64.00
2019-05-03T04:14:15.948Z,68.00
2019-05-03T04:15:15.900Z,72.00
2019-05-03T04:16:17.033Z,72.00
2019-05-03T04:17:15.081Z,76.00
2019-05-03T04:18:13.209Z,80.00
2019-05-03T04:19:13.239Z,88.00
2019-05-03T04:20:16.101Z,88.00
2019-05-03T04:21:16.044Z,88.00
2019-05-03T04:22:16.293Z,88.00
2019-05-03T04:23:16.162Z,88.00
2019-05-03T04:24:16.121Z,88.00
2019-05-03T04:25:15.480Z,96.00
2019-05-03T04:26:16.013Z,100.00
2019-05-03T04:27:19.759Z,104.00
2019-05-03T04:28:15.977Z,108.00
2019-05-03T04:29:15.853Z,120.00
2019-05-03T04:30:16.186Z,132.00
2019-05-03T04:31:15.216Z,136.00
2019-05-03T04:32:15.660Z,144.00
2019-05-03T04:33:15.854Z,136.00
2019-05-03T04:34:15.998Z,140.00
2019-05-03T04:35:16.253Z,144.00
2019-05-03T04:36:15.853Z,140.00
2019-05-03T04:37:16.186Z,144.00
2019-05-03T04:38:16.047Z,152.00
2019-05-03T04:39:17.193Z,152.00
2019-05-03T04:40:15.662Z,140.00
2019-05-03T04:41:15.902Z,132.00
2019-05-03T04:42:16.673Z,128.00
2019-05-03T04:43:16.293Z,132.00
2019-05-03T04:44:15.478Z,152.00
2019-05-03T04:45:16.266Z,176.00
2019-05-03T04:46:16.210Z,160.00
2019-05-03T04:47:15.758Z,216.00
2019-05-03T04:48:16.002Z,212.00
2019-05-03T04:49:15.135Z,232.00
2019-05-03T04:50:16.338Z,300.00
2019-05-03T04:51:16.532Z,356.00
2019-05-03T04:52:16.534Z,372.00
2019-05-03T04:53:16.243Z,376.00
2019-05-03T04:54:16.429Z,316.00
2019-05-03T04:55:15.950Z,236.00
2019-05-03T04:56:16.923Z,200.00
2019-05-03T04:57:17.546Z,200.00
2019-05-03T04:58:16.145Z,172.00
2019-05-03T04:59:15.915Z,180.00
2019-05-03T05:00:15.958Z,212.00
2019-05-03T05:01:15.766Z,200.00
2019-05-03T05:02:15.934Z,180.00
2019-05-03T05:03:15.142Z,188.00
2019-05-03T05:04:16.209Z,208.00
2019-05-03T05:05:15.347Z,216.00
2019-05-03T05:06:15.384Z,204.00
2019-05-03T05:07:15.573Z,224.00
2019-05-03T05:08:16.222Z,236.00
2019-05-03T05:09:15.618Z,240.00
2019-05-03T05:10:15.280Z,244.00
2019-05-03T05:11:15.814Z,252.00
2019-05-03T05:12:16.278Z,260.00
2019-05-03T05:13:15.795Z,276.00
2019-05-03T05:14:15.313Z,276.00
2019-05-03T05:15:15.707Z,248.00
2019-05-03T05:16:16.030Z,216.00
2019-05-03T05:17:16.315Z,196.00
2019-05-03T05:18:15.978Z,188.00
2019-05-03T05:19:15.199Z,192.00
2019-05-03T05:20:14.640Z,220.00
2019-05-03T05:21:15.023Z,252.00
2019-05-03T05:22:15.556Z,296.00
2019-05-03T05:23:14.895Z,240.00
2019-05-03T05:24:15.182Z,256.00
2019-05-03T05:25:14.908Z,236.00
2019-05-03T05:26:14.748Z,212.00
2019-05-03T05:27:14.780Z,204.00
2019-05-03T05:28:15.085Z,208.00
2019-05-03T05:29:14.820Z,240.00
2019-05-03T05:30:15.029Z,400.00
2019-05-03T05:31:15.212Z,368.00
2019-05-03T05:32:14.894Z,440.00
2019-05-03T05:33:14.912Z,428.00
2019-05-03T05:34:15.356Z,428.00
2019-05-03T05:35:14.967Z,424.00
2019-05-03T05:36:15.406Z,420.00
2019-05-03T05:37:15.008Z,420.00
2019-05-03T05:38:15.074Z,420.00
2019-05-03T05:39:15.593Z,424.00
2019-05-03T05:40:15.613Z,436.00
2019-05-03T05:41:15.635Z,436.00
2019-05-03T05:42:15.120Z,448.00
2019-05-03T05:43:15.295Z,448.00
2019-05-03T05:44:15.159Z,408.00
2019-05-03T05:45:15.454Z,368.00
2019-05-03T05:46:15.210Z,436.00
2019-05-03T05:47:15.233Z,408.00
2019-05-03T05:48:15.414Z,500.00
2019-05-03T05:49:15.274Z,524.00
2019-05-03T05:50:15.300Z,528.00
2019-05-03T05:51:16.113Z,524.00
2019-05-03T05:52:15.581Z,520.00
2019-05-03T05:53:15.405Z,424.00
2019-05-03T05:54:15.382Z,336.00
2019-05-03T05:55:15.416Z,272.00
2019-05-03T05:56:15.783Z,232.00
2019-05-03T05:57:15.459Z,212.00
2019-05-03T05:58:15.717Z,208.00
2019-05-03T05:59:15.543Z,276.00
2019-05-03T06:00:15.535Z,304.00
2019-05-03T06:01:15.547Z,340.00
2019-05-03T06:02:15.561Z,428.00
2019-05-03T06:03:15.591Z,424.00
2019-05-03T06:04:15.613Z,412.00
2019-05-03T06:05:15.636Z,384.00
2019-05-03T06:06:15.660Z,404.00
2019-05-03T06:07:15.678Z,400.00
2019-05-03T06:08:15.709Z,400.00
2019-05-03T06:09:15.725Z,428.00
2019-05-03T06:10:16.692Z,452.00
2019-05-03T06:11:15.794Z,472.00
2019-05-03T06:12:15.793Z,496.00
2019-05-03T06:13:15.811Z,520.00
2019-05-03T06:14:15.835Z,624.00
2019-05-03T06:15:15.860Z,532.00
2019-05-03T06:16:15.881Z,376.00
2019-05-03T06:17:15.905Z,528.00
2019-05-03T06:18:15.931Z,460.00
2019-05-03T06:19:15.944Z,572.00
2019-05-03T06:20:15.985Z,584.00
2019-05-03T06:21:15.990Z,564.00
2019-05-03T06:22:16.015Z,556.00
2019-05-03T06:23:16.034Z,524.00
2019-05-03T06:24:16.059Z,504.00
2019-05-03T06:25:16.762Z,512.00
2019-05-03T06:26:16.107Z,488.00
2019-05-03T06:27:16.165Z,524.00
2019-05-03T06:29:16.220Z,448.00
2019-05-03T06:30:16.195Z,560.00
2019-05-03T06:31:16.227Z,496.00
2019-05-03T06:32:16.243Z,464.00
2019-05-03T06:33:16.268Z,328.00
2019-05-03T06:34:16.287Z,252.00
2019-05-03T06:35:16.315Z,464.00
2019-05-03T06:36:16.338Z,440.00
2019-05-03T06:37:16.361Z,544.00
2019-05-03T06:38:16.379Z,756.00
2019-05-03T06:39:16.405Z,528.00
2019-05-03T06:40:16.427Z,624.00
2019-05-03T06:41:16.449Z,540.00
2019-05-03T06:42:19.119Z,400.00
2019-05-03T06:43:16.499Z,684.00
2019-05-03T06:44:19.174Z,568.00
2019-05-03T06:45:16.543Z,836.00
2019-05-03T06:46:18.378Z,452.00
2019-05-03T06:47:16.584Z,384.00
2019-05-03T06:48:17.698Z,520.00
2019-05-03T06:49:16.638Z,440.00
2019-05-03T06:50:19.324Z,800.00
2019-05-03T06:51:19.992Z,904.00
2019-05-03T06:52:19.693Z,648.00
2019-05-03T06:53:16.727Z,512.00
2019-05-03T06:54:20.422Z,644.00
2019-05-03T06:55:16.765Z,548.00
2019-05-03T06:56:19.307Z,492.00
2019-05-03T06:57:16.811Z,604.00
2019-05-03T06:58:30.378Z,624.00
2019-05-03T06:59:16.859Z,368.00
2019-05-03T07:00:16.878Z,644.00
2019-05-03T07:01:16.904Z,728.00
2019-05-03T07:02:16.924Z,836.00
2019-05-03T07:03:16.948Z,636.00
2019-05-03T07:04:16.977Z,608.00
2019-05-03T07:05:16.996Z,716.00
2019-05-03T07:06:17.014Z,692.00
2019-05-03T07:07:17.037Z,752.00
2019-05-03T07:08:17.066Z,928.00
2019-05-03T07:09:17.090Z,1224.00
2019-05-03T07:10:17.110Z,796.00
2019-05-03T07:11:17.140Z,1056.00
2019-05-03T07:12:17.156Z,1308.00
2019-05-03T07:13:17.180Z,1028.00
2019-05-03T07:14:17.211Z,832.00
2019-05-03T07:15:17.222Z,748.00
2019-05-03T07:16:17.260Z,928.00
2019-05-03T07:17:17.282Z,1008.00
2019-05-03T07:18:17.303Z,856.00
2019-05-03T07:19:17.330Z,1048.00
2019-05-03T07:20:17.339Z,928.00
2019-05-03T07:21:17.358Z,892.00
2019-05-03T07:22:17.384Z,368.00
2019-05-03T07:23:17.404Z,624.00
2019-05-03T07:24:17.433Z,712.00
2019-05-03T07:25:17.447Z,1164.00
2019-05-03T07:26:17.478Z,1108.00
2019-05-03T07:27:17.496Z,812.00
2019-05-03T07:28:17.520Z,752.00
2019-05-03T07:29:17.544Z,748.00
2019-05-03T07:30:17.576Z,808.00
2019-05-03T07:31:17.594Z,804.00
2019-05-03T07:32:17.610Z,792.00
2019-05-03T07:33:17.633Z,784.00
2019-05-03T07:34:17.658Z,748.00
2019-05-03T07:35:17.684Z,732.00
2019-05-03T07:36:17.706Z,816.00
2019-05-03T07:38:17.768Z,856.00
2019-05-03T07:39:17.781Z,828.00
2019-05-03T07:40:17.807Z,764.00
2019-05-03T07:41:17.818Z,1048.00
2019-05-03T07:42:17.843Z,1152.00
2019-05-03T07:43:18.949Z,1208.00
2019-05-03T07:44:17.906Z,528.00
2019-05-03T07:45:17.927Z,512.00
2019-05-03T07:46:17.942Z,448.00
2019-05-03T07:47:17.963Z,444.00
2019-05-03T07:48:17.983Z,880.00
2019-05-03T07:49:18.002Z,860.00
2019-05-03T07:50:18.046Z,956.00
2019-05-03T07:51:18.071Z,1048.00
2019-05-03T07:52:18.088Z,972.00
2019-05-03T07:53:18.105Z,920.00
2019-05-03T07:54:18.125Z,832.00
2019-05-03T07:55:18.149Z,1048.00
2019-05-03T07:56:18.171Z,1364.00
2019-05-03T07:57:18.298Z,1108.00
2019-05-03T07:58:18.251Z,1204.00
2019-05-03T07:59:18.239Z,1356.00
2019-05-03T08:00:18.263Z,768.00
2019-05-03T08:01:18.293Z,828.00
2019-05-03T08:02:18.429Z,792.00
2019-05-03T08:03:18.339Z,1048.00
2019-05-03T08:04:18.362Z,1152.00
2019-05-03T08:05:18.389Z,988.00
2019-05-03T08:06:18.404Z,492.00
2019-05-03T08:07:22.334Z,392.00
2019-05-03T08:08:18.449Z,444.00
2019-05-03T08:09:18.575Z,492.00
2019-05-03T08:10:18.516Z,1172.00
2019-05-03T08:11:18.523Z,1312.00
2019-05-03T08:12:18.551Z,1288.00
2019-05-03T08:13:18.573Z,1728.00
2019-05-03T08:14:18.589Z,1580.00
2019-05-03T08:15:18.611Z,1668.00
2019-05-03T08:16:18.639Z,820.00
2019-05-03T08:17:18.663Z,692.00
2019-05-03T08:18:18.693Z,640.00
2019-05-03T08:19:18.707Z,1080.00
2019-05-03T08:20:18.740Z,1128.00
2019-05-03T08:21:18.775Z,1672.00
2019-05-03T08:22:18.793Z,984.00
2019-05-03T08:23:27.515Z,1132.00
2019-05-03T08:24:18.825Z,1252.00
2019-05-03T08:25:18.865Z,532.00
2019-05-03T08:26:18.917Z,420.00
2019-05-03T08:27:18.907Z,1084.00
2019-05-03T08:28:18.921Z,1900.00
2019-05-03T08:29:19.658Z,1588.00
2019-05-03T08:30:18.977Z,1524.00
2019-05-03T08:31:18.989Z,1676.00
2019-05-03T08:32:19.032Z,1648.00
2019-05-03T08:33:19.049Z,1732.00
2019-05-03T08:34:19.077Z,1780.00
2019-05-03T08:35:19.089Z,1636.00
2019-05-03T08:36:19.123Z,948.00
2019-05-03T08:37:19.265Z,720.00
2019-05-03T08:38:19.164Z,1740.00
2019-05-03T08:39:19.191Z,1732.00
2019-05-03T08:40:19.202Z,812.00
2019-05-03T08:41:19.227Z,624.00
2019-05-03T08:42:19.269Z,1736.00
2019-05-03T08:43:19.283Z,788.00
2019-05-03T08:44:19.311Z,1668.00
2019-05-03T08:45:19.321Z,1784.00
2019-05-03T08:46:19.357Z,2076.00
2019-05-03T08:47:19.369Z,2596.00
2019-05-03T08:48:19.397Z,984.00
2019-05-03T08:49:19.431Z,664.00
2019-05-03T08:50:21.550Z,808.00
2019-05-03T08:51:19.466Z,1180.00
2019-05-03T08:52:19.503Z,2280.00
2019-05-03T08:53:19.522Z,2096.00
2019-05-03T08:54:19.569Z,792.00
2019-05-03T08:55:19.563Z,788.00
2019-05-03T08:56:19.586Z,940.00
2019-05-03T08:57:19.657Z,1080.00
2019-05-03T08:58:19.644Z,932.00
2019-05-03T08:59:29.032Z,780.00
2019-05-03T09:00:19.739Z,1008.00
2019-05-03T09:01:19.710Z,1680.00
2019-05-03T09:02:19.731Z,1496.00
2019-05-03T09:03:19.757Z,1484.00
2019-05-03T09:04:19.824Z,1676.00
2019-05-03T09:05:19.826Z,2032.00
2019-05-03T09:06:19.846Z,2264.00
2019-05-03T09:07:19.907Z,764.00
2019-05-03T09:08:19.909Z,1484.00
2019-05-03T09:09:19.910Z,2752.00
2019-05-03T09:10:19.936Z,1340.00
2019-05-03T09:11:30.670Z,652.00
2019-05-03T09:12:19.967Z,584.00
2019-05-03T09:13:20.148Z,584.00
2019-05-03T09:14:20.086Z,800.00
2019-05-03T09:15:21.686Z,1028.00
2019-05-03T09:16:20.171Z,1272.00
2019-05-03T09:17:20.086Z,948.00
2019-05-03T09:18:20.108Z,1064.00
2019-05-03T09:19:20.140Z,1304.00
2019-05-03T09:20:20.162Z,1400.00
2019-05-03T09:21:20.182Z,1196.00
2019-05-03T09:22:20.260Z,1212.00
2019-05-03T09:23:23.241Z,1336.00
2019-05-03T09:24:20.258Z,1996.00
2019-05-03T09:25:20.282Z,2208.00
2019-05-03T09:26:20.304Z,2204.00
2019-05-03T09:27:20.326Z,1560.00
2019-05-03T09:28:20.350Z,1624.00
2019-05-03T09:29:20.377Z,1848.00
2019-05-03T09:30:20.424Z,1956.00
2019-05-03T09:31:20.427Z,1544.00
2019-05-03T09:32:20.478Z,1576.00
2019-05-03T09:33:20.487Z,1952.00
2019-05-03T09:34:20.522Z,2788.00
2019-05-03T09:35:29.809Z,1712.00
2019-05-03T09:36:20.540Z,1368.00
2019-05-03T09:37:20.575Z,2836.00
2019-05-03T09:38:20.785Z,1932.00
2019-05-03T09:39:20.617Z,2024.00
2019-05-03T09:40:20.638Z,1588.00
2019-05-03T09:41:20.672Z,1576.00
2019-05-03T09:42:20.690Z,1636.00
2019-05-03T09:43:20.715Z,1460.00
2019-05-03T09:44:20.820Z,2228.00
2019-05-03T09:45:20.760Z,1460.00
2019-05-03T09:46:23.331Z,2184.00
2019-05-03T09:47:20.813Z,2784.00
2019-05-03T09:48:20.828Z,2564.00
2019-05-03T09:49:20.858Z,2832.00
2019-05-03T09:50:20.895Z,2124.00
2019-05-03T09:51:20.909Z,2052.00
2019-05-03T09:52:20.938Z,972.00
2019-05-03T09:53:20.953Z,684.00
2019-05-03T09:54:20.977Z,572.00
2019-05-03T09:55:21.000Z,512.00
2019-05-03T09:56:21.059Z,516.00
2019-05-03T09:57:21.046Z,476.00
2019-05-03T09:58:21.075Z,516.00
2019-05-03T09:59:21.090Z,432.00
2019-05-03T10:00:21.138Z,476.00
2019-05-03T10:01:21.146Z,544.00
2019-05-03T10:02:21.169Z,1144.00
2019-05-03T10:03:21.220Z,2332.00
2019-05-03T10:04:21.224Z,7492.00
2019-05-03T10:05:21.252Z,4768.00
2019-05-03T10:06:22.016Z,13044.00
2019-05-03T10:07:21.291Z,13376.00
2019-05-03T10:08:21.311Z,14304.00
2019-05-03T10:09:21.339Z,15712.00
2019-05-03T10:10:21.363Z,11592.00
2019-05-03T10:11:21.397Z,1244.00
2019-05-03T10:12:21.418Z,1052.00
2019-05-03T10:13:23.631Z,808.00
2019-05-03T10:14:21.477Z,580.00
2019-05-03T10:15:21.489Z,708.00
2019-05-03T10:16:21.519Z,788.00
2019-05-03T10:17:21.547Z,1068.00
2019-05-03T10:18:21.567Z,1516.00
2019-05-03T10:19:33.732Z,2464.00
2019-05-03T10:20:21.612Z,2684.00
2019-05-03T10:21:21.647Z,17120.00
2019-05-03T10:22:21.686Z,17952.00
2019-05-03T10:23:21.697Z,17568.00
2019-05-03T10:24:21.721Z,16704.00
2019-05-03T10:25:21.739Z,14944.00
2019-05-03T10:26:21.769Z,14400.00
2019-05-03T10:27:21.809Z,6296.00
2019-05-03T10:28:21.860Z,14880.00
2019-05-03T10:29:21.852Z,4948.00
2019-05-03T10:30:21.885Z,14112.00
2019-05-03T10:31:21.902Z,12504.00
2019-05-03T10:32:21.929Z,3052.00
2019-05-03T10:33:21.955Z,10184.00
2019-05-03T10:34:21.982Z,16160.00
2019-05-03T10:35:22.015Z,17184.00
2019-05-03T10:36:22.045Z,17824.00
2019-05-03T10:37:22.059Z,20032.00
2019-05-03T10:38:22.088Z,5260.00
2019-05-03T10:39:22.121Z,19552.00
2019-05-03T10:40:22.147Z,6680.00
2019-05-03T10:41:22.181Z,16128.00
2019-05-03T10:42:24.325Z,16544.00
2019-05-03T10:43:24.638Z,17056.00
2019-05-03T10:44:24.419Z,2596.00
2019-05-03T10:45:25.679Z,1840.00
2019-05-03T10:46:22.317Z,1608.00
2019-05-03T10:47:22.346Z,1604.00
2019-05-03T10:48:24.641Z,1092.00
2019-05-03T10:49:24.443Z,1128.00
2019-05-03T10:50:22.430Z,1532.00
2019-05-03T10:51:22.453Z,18112.00
2019-05-03T10:52:22.488Z,18176.00
2019-05-03T10:53:22.511Z,18560.00
2019-05-03T10:54:22.539Z,3932.00
2019-05-03T10:55:24.922Z,4192.00
2019-05-03T10:56:24.529Z,20320.00
2019-05-03T10:57:24.724Z,22464.00
2019-05-03T10:58:24.930Z,4076.00
2019-05-03T10:59:24.643Z,4108.00
2019-05-03T11:00:42.512Z,7332.00
2019-05-03T11:01:22.733Z,22624.00
2019-05-03T11:02:22.765Z,26144.00
2019-05-03T11:03:22.788Z,24512.00
2019-05-03T11:04:22.812Z,24768.00
2019-05-03T11:05:22.841Z,25184.00
2019-05-03T11:06:22.870Z,22688.00
2019-05-03T11:07:22.906Z,27392.00
2019-05-03T11:08:22.926Z,24544.00
2019-05-03T11:09:22.954Z,28832.00
2019-05-03T11:10:22.986Z,25024.00
2019-05-03T11:11:23.014Z,4404.00
2019-05-03T11:12:23.044Z,2832.00
2019-05-03T11:13:23.077Z,1772.00
2019-05-03T11:14:25.216Z,1320.00
2019-05-03T11:15:23.146Z,1208.00
2019-05-03T11:16:25.149Z,948.00
2019-05-03T11:17:23.201Z,1136.00
2019-05-03T11:18:25.171Z,2000.00
2019-05-03T11:19:25.184Z,1136.00
2019-05-03T11:20:29.058Z,1284.00
2019-05-03T11:21:30.294Z,4068.00
2019-05-03T11:22:25.257Z,1440.00
2019-05-03T11:23:25.136Z,25184.00
2019-05-03T11:24:26.741Z,23232.00
2019-05-03T11:25:24.943Z,23808.00
2019-05-03T11:26:25.275Z,25760.00
2019-05-03T11:27:24.825Z,23360.00
2019-05-03T11:28:24.972Z,13568.00
2019-05-03T11:29:24.766Z,5336.00
2019-05-03T11:30:24.680Z,3504.00
2019-05-03T11:31:24.852Z,3216.00
2019-05-03T11:32:25.495Z,2932.00
2019-05-03T11:33:24.754Z,2772.00
2019-05-03T11:34:25.349Z,2712.00
2019-05-03T11:35:24.692Z,2812.00
2019-05-03T11:36:25.293Z,3244.00
2019-05-03T11:37:25.162Z,3648.00
2019-05-03T11:38:25.390Z,2396.00
2019-05-03T11:39:25.104Z,1680.00
2019-05-03T11:40:25.128Z,2240.00
2019-05-03T11:41:32.150Z,3044.00
2019-05-03T11:42:24.534Z,2684.00
2019-05-03T11:43:24.757Z,2072.00
2019-05-03T11:44:24.596Z,1892.00
2019-05-03T11:45:24.583Z,2028.00
2019-05-03T11:46:24.861Z,2172.00
2019-05-03T11:47:25.590Z,1952.00
2019-05-03T11:48:25.253Z,1548.00
2019-05-03T11:49:25.461Z,1160.00
2019-05-03T11:50:25.310Z,1640.00
2019-05-03T11:51:24.879Z,1580.00
2019-05-03T11:52:25.818Z,1360.00
2019-05-03T11:53:25.170Z,1164.00
2019-05-03T11:54:24.996Z,1116.00
2019-05-03T11:55:26.585Z,1128.00
2019-05-03T11:56:24.979Z,1316.00
2019-05-03T11:57:26.290Z,1516.00
2019-05-03T11:58:27.119Z,1764.00
2019-05-03T11:59:25.557Z,1888.00
2019-05-03T12:00:25.313Z,2012.00
2019-05-03T12:01:25.658Z,2372.00
2019-05-03T12:02:24.815Z,2544.00
2019-05-03T12:03:25.000Z,2656.00
2019-05-03T12:04:24.936Z,2676.00
2019-05-03T12:05:24.629Z,2336.00
2019-05-03T12:06:24.962Z,2212.00
2019-05-03T12:07:36.550Z,2052.00
2019-05-03T12:08:25.262Z,2052.00
2019-05-03T12:09:24.577Z,2252.00
2019-05-03T12:10:37.485Z,1908.00
2019-05-03T12:11:24.631Z,1664.00
2019-05-03T12:12:24.661Z,1296.00
2019-05-03T12:13:24.756Z,1212.00
2019-05-03T12:14:24.717Z,1272.00
2019-05-03T12:15:24.739Z,1224.00
2019-05-03T12:16:59.874Z,1424.00
2019-05-03T12:17:28.998Z,1632.00
2019-05-03T12:18:25.626Z,1560.00
2019-05-03T12:19:30.180Z,1712.00
2019-05-03T12:20:28.221Z,1628.00
2019-05-03T12:21:27.455Z,1824.00
2019-05-03T12:22:26.060Z,2360.00
2019-05-03T12:23:25.741Z,2136.00
2019-05-03T12:24:26.717Z,1800.00
2019-05-03T12:25:26.042Z,1500.00
2019-05-03T12:26:27.129Z,1600.00
2019-05-03T12:27:25.029Z,1764.00
2019-05-03T12:28:25.683Z,1736.00
2019-05-03T12:29:25.094Z,1912.00
2019-05-03T12:30:27.690Z,1752.00
2019-05-03T12:31:33.895Z,1512.00
2019-05-03T12:32:25.204Z,1232.00
2019-05-03T12:33:26.083Z,1256.00
2019-05-03T12:34:25.697Z,1544.00
2019-05-03T12:35:25.237Z,1452.00
2019-05-03T12:36:25.259Z,1436.00